sensor_id;sensor_type;location;lat;lon;timestamp;temperature;humidity
11569;DHT22;5840;46.894;15.542;2023-09-08T00:02:11;15.70;99.90
11569;DHT22;5840;46.894;15.542;2023-09-08T00:04:39;15.60;99.90
11569;DHT22;5840;46.894;15.542;2023-09-08T00:07:06;15.60;99.90
11569;DHT22;5840;46.894;15.542;2023-09-08T00:09:33;15.60;99.90
11569;DHT22;5840;46.894;15.542;2023-09-08T00:12:00;15.50;99.90
11569;DHT22;5840;46.894;15.542;2023-09-08T00:14:27;15.50;99.90
11569;DHT22;5840;46.894;15.542;2023-09-08T00:16:54;15.40;99.90
11569;DHT22;5840;46.894;15.542;2023-09-08T00:19:21;15.40;99.90
11569;DHT22;5840;46.894;15.542;2023-09-08T00:21:49;15.30;99.90
11569;DHT22;5840;46.894;15.542;2023-09-08T00:24:16;15.20;99.90
11569;DHT22;5840;46.894;15.542;2023-09-08T00:26:43;15.10;99.90
11569;DHT22;5840;46.894;15.542;2023-09-08T00:29:10;15.10;99.90
11569;DHT22;5840;46.894;15.542;2023-09-08T00:31:37;15.10;99.90
11569;DHT22;5840;46.894;15.542;2023-09-08T00:34:04;15.00;99.90
11569;DHT22;5840;46.894;15.542;2023-09-08T00:36:32;15.10;99.90
11569;DHT22;5840;46.894;15.542;2023-09-08T00:39:00;15.10;99.90
11569;DHT22;5840;46.894;15.542;2023-09-08T00:41:27;15.10;99.90
11569;DHT22;5840;46.894;15.542;2023-09-08T00:43:54;15.10;99.90
11569;DHT22;5840;46.894;15.542;2023-09-08T00:46:21;15.10;99.90
11569;DHT22;5840;46.894;15.542;2023-09-08T00:48:48;15.10;99.90
11569;DHT22;5840;46.894;15.542;2023-09-08T00:51:14;15.10;99.90
11569;DHT22;5840;46.894;15.542;2023-09-08T00:53:41;15.10;99.90
11569;DHT22;5840;46.894;15.542;2023-09-08T00:56:10;15.00;99.90
11569;DHT22;5840;46.894;15.542;2023-09-08T00:58:38;15.00;99.90
11569;DHT22;5840;46.894;15.542;2023-09-08T01:01:05;15.00;99.90
11569;DHT22;5840;46.894;15.542;2023-09-08T01:03:33;15.00;99.90
11569;DHT22;5840;46.894;15.542;2023-09-08T01:06:00;14.90;99.90
11569;DHT22;5840;46.894;15.542;2023-09-08T01:08:28;14.90;99.90
11569;DHT22;5840;46.894;15.542;2023-09-08T01:10:56;14.90;99.90
11569;DHT22;5840;46.894;15.542;2023-09-08T01:13:24;14.80;99.90
11569;DHT22;5840;46.894;15.542;2023-09-08T01:15:51;14.80;99.90
11569;DHT22;5840;46.894;15.542;2023-09-08T01:18:18;14.80;99.90
11569;DHT22;5840;46.894;15.542;2023-09-08T01:21:03;14.80;99.90
11569;DHT22;5840;46.894;15.542;2023-09-08T01:23:40;14.80;99.90
11569;DHT22;5840;46.894;15.542;2023-09-08T01:26:17;14.80;99.90
11569;DHT22;5840;46.894;15.542;2023-09-08T01:28:45;14.80;99.90
11569;DHT22;5840;46.894;15.542;2023-09-08T01:31:15;14.70;99.90
11569;DHT22;5840;46.894;15.542;2023-09-08T01:33:43;14.70;99.90
11569;DHT22;5840;46.894;15.542;2023-09-08T01:36:11;14.70;99.90
11569;DHT22;5840;46.894;15.542;2023-09-08T01:38:38;14.70;99.90
11569;DHT22;5840;46.894;15.542;2023-09-08T01:41:04;14.70;99.90
11569;DHT22;5840;46.894;15.542;2023-09-08T01:43:33;14.60;99.90
11569;DHT22;5840;46.894;15.542;2023-09-08T01:46:00;14.60;99.90
11569;DHT22;5840;46.894;15.542;2023-09-08T01:48:26;14.50;99.90
11569;DHT22;5840;46.894;15.542;2023-09-08T01:50:53;14.50;99.90
11569;DHT22;5840;46.894;15.542;2023-09-08T01:53:20;14.40;99.90
11569;DHT22;5840;46.894;15.542;2023-09-08T01:55:47;14.40;99.90
11569;DHT22;5840;46.894;15.542;2023-09-08T01:58:14;14.40;99.90
11569;DHT22;5840;46.894;15.542;2023-09-08T02:00:42;14.30;99.90
11569;DHT22;5840;46.894;15.542;2023-09-08T02:03:09;14.30;99.90
11569;DHT22;5840;46.894;15.542;2023-09-08T02:05:36;14.30;99.90
11569;DHT22;5840;46.894;15.542;2023-09-08T02:08:05;14.30;99.90
11569;DHT22;5840;46.894;15.542;2023-09-08T02:10:32;14.30;99.90
11569;DHT22;5840;46.894;15.542;2023-09-08T02:12:59;14.30;99.90
11569;DHT22;5840;46.894;15.542;2023-09-08T02:15:26;14.30;99.90
11569;DHT22;5840;46.894;15.542;2023-09-08T02:17:54;14.30;99.90
11569;DHT22;5840;46.894;15.542;2023-09-08T02:20:21;14.30;99.90
11569;DHT22;5840;46.894;15.542;2023-09-08T02:22:52;14.30;99.90
11569;DHT22;5840;46.894;15.542;2023-09-08T02:25:20;14.30;99.90
11569;DHT22;5840;46.894;15.542;2023-09-08T02:27:46;14.30;99.90
11569;DHT22;5840;46.894;15.542;2023-09-08T02:30:13;14.30;99.90
11569;DHT22;5840;46.894;15.542;2023-09-08T02:32:40;14.30;99.90
11569;DHT22;5840;46.894;15.542;2023-09-08T02:35:10;14.20;99.90
11569;DHT22;5840;46.894;15.542;2023-09-08T02:37:37;14.20;99.90
11569;DHT22;5840;46.894;15.542;2023-09-08T02:40:05;14.20;99.90
11569;DHT22;5840;46.894;15.542;2023-09-08T02:42:32;14.20;99.90
11569;DHT22;5840;46.894;15.542;2023-09-08T02:45:00;14.10;99.90
11569;DHT22;5840;46.894;15.542;2023-09-08T02:47:27;14.10;99.90
11569;DHT22;5840;46.894;15.542;2023-09-08T02:49:53;14.10;99.90
11569;DHT22;5840;46.894;15.542;2023-09-08T02:52:22;14.00;99.90
11569;DHT22;5840;46.894;15.542;2023-09-08T02:54:49;14.00;99.90
11569;DHT22;5840;46.894;15.542;2023-09-08T02:57:15;14.00;99.90
11569;DHT22;5840;46.894;15.542;2023-09-08T02:59:42;14.00;99.90
11569;DHT22;5840;46.894;15.542;2023-09-08T03:02:09;14.00;99.90
11569;DHT22;5840;46.894;15.542;2023-09-08T03:04:36;14.00;99.90
11569;DHT22;5840;46.894;15.542;2023-09-08T03:07:03;13.90;99.90
11569;DHT22;5840;46.894;15.542;2023-09-08T03:09:33;13.90;99.90
11569;DHT22;5840;46.894;15.542;2023-09-08T03:12:00;13.90;99.90
11569;DHT22;5840;46.894;15.542;2023-09-08T03:14:27;13.80;99.90
11569;DHT22;5840;46.894;15.542;2023-09-08T03:16:54;13.80;99.90
11569;DHT22;5840;46.894;15.542;2023-09-08T03:19:21;13.80;99.90
11569;DHT22;5840;46.894;15.542;2023-09-08T03:21:48;13.80;99.90
11569;DHT22;5840;46.894;15.542;2023-09-08T03:24:14;13.80;99.90
11569;DHT22;5840;46.894;15.542;2023-09-08T03:26:43;13.80;99.90
11569;DHT22;5840;46.894;15.542;2023-09-08T03:29:10;13.80;99.90
11569;DHT22;5840;46.894;15.542;2023-09-08T03:31:36;13.80;99.90
11569;DHT22;5840;46.894;15.542;2023-09-08T03:34:04;13.80;99.90
11569;DHT22;5840;46.894;15.542;2023-09-08T03:36:31;13.80;99.90
11569;DHT22;5840;46.894;15.542;2023-09-08T03:39:01;13.70;99.90
11569;DHT22;5840;46.894;15.542;2023-09-08T03:41:28;13.70;99.90
11569;DHT22;5840;46.894;15.542;2023-09-08T03:43:56;13.70;99.90
11569;DHT22;5840;46.894;15.542;2023-09-08T03:46:23;13.70;99.90
11569;DHT22;5840;46.894;15.542;2023-09-08T03:48:51;13.70;99.90
11569;DHT22;5840;46.894;15.542;2023-09-08T03:51:19;13.70;99.90
11569;DHT22;5840;46.894;15.542;2023-09-08T03:53:46;13.70;99.90
11569;DHT22;5840;46.894;15.542;2023-09-08T03:56:13;13.70;99.90
11569;DHT22;5840;46.894;15.542;2023-09-08T03:58:40;13.60;99.90
11569;DHT22;5840;46.894;15.542;2023-09-08T04:01:08;13.60;99.90
11569;DHT22;5840;46.894;15.542;2023-09-08T04:03:35;13.60;99.90
11569;DHT22;5840;46.894;15.542;2023-09-08T04:06:02;13.50;99.90
11569;DHT22;5840;46.894;15.542;2023-09-08T04:08:29;13.50;99.90
11569;DHT22;5840;46.894;15.542;2023-09-08T04:10:56;13.50;99.90
11569;DHT22;5840;46.894;15.542;2023-09-08T04:13:23;13.50;99.90
11569;DHT22;5840;46.894;15.542;2023-09-08T04:15:50;13.50;99.90
11569;DHT22;5840;46.894;15.542;2023-09-08T04:18:18;13.40;99.90
11569;DHT22;5840;46.894;15.542;2023-09-08T04:20:45;13.40;99.90
11569;DHT22;5840;46.894;15.542;2023-09-08T04:23:12;13.40;99.90
11569;DHT22;5840;46.894;15.542;2023-09-08T04:25:39;13.40;99.90
11569;DHT22;5840;46.894;15.542;2023-09-08T04:28:06;13.40;99.90
11569;DHT22;5840;46.894;15.542;2023-09-08T04:30:33;13.40;99.90
11569;DHT22;5840;46.894;15.542;2023-09-08T04:32:59;13.40;99.90
11569;DHT22;5840;46.894;15.542;2023-09-08T04:35:28;13.40;99.90
11569;DHT22;5840;46.894;15.542;2023-09-08T04:37:54;13.40;99.90
11569;DHT22;5840;46.894;15.542;2023-09-08T04:40:21;13.40;99.90
11569;DHT22;5840;46.894;15.542;2023-09-08T04:42:48;13.40;99.90
11569;DHT22;5840;46.894;15.542;2023-09-08T04:45:15;13.40;99.90
11569;DHT22;5840;46.894;15.542;2023-09-08T04:47:42;13.40;99.90
11569;DHT22;5840;46.894;15.542;2023-09-08T04:50:09;13.40;99.90
11569;DHT22;5840;46.894;15.542;2023-09-08T04:52:37;13.40;99.90
11569;DHT22;5840;46.894;15.542;2023-09-08T04:55:05;13.50;99.90
11569;DHT22;5840;46.894;15.542;2023-09-08T04:57:32;13.50;99.90
11569;DHT22;5840;46.894;15.542;2023-09-08T04:59:59;13.50;99.90
11569;DHT22;5840;46.894;15.542;2023-09-08T05:02:26;13.50;99.90
11569;DHT22;5840;46.894;15.542;2023-09-08T05:04:53;13.40;99.90
11569;DHT22;5840;46.894;15.542;2023-09-08T05:07:20;13.40;99.90
11569;DHT22;5840;46.894;15.542;2023-09-08T05:09:48;13.30;99.90
11569;DHT22;5840;46.894;15.542;2023-09-08T05:12:15;13.30;99.90
11569;DHT22;5840;46.894;15.542;2023-09-08T05:14:42;13.30;99.90
11569;DHT22;5840;46.894;15.542;2023-09-08T05:17:09;13.30;99.90
11569;DHT22;5840;46.894;15.542;2023-09-08T05:19:36;13.40;99.90
11569;DHT22;5840;46.894;15.542;2023-09-08T05:22:05;13.40;99.90
11569;DHT22;5840;46.894;15.542;2023-09-08T05:24:32;13.40;99.90
11569;DHT22;5840;46.894;15.542;2023-09-08T05:27:00;13.50;99.90
11569;DHT22;5840;46.894;15.542;2023-09-08T05:29:27;13.50;99.90
11569;DHT22;5840;46.894;15.542;2023-09-08T05:31:54;13.60;99.90
11569;DHT22;5840;46.894;15.542;2023-09-08T05:34:21;13.70;99.90
11569;DHT22;5840;46.894;15.542;2023-09-08T05:36:48;13.70;99.90
11569;DHT22;5840;46.894;15.542;2023-09-08T05:39:15;13.90;99.90
11569;DHT22;5840;46.894;15.542;2023-09-08T05:41:44;13.90;99.90
11569;DHT22;5840;46.894;15.542;2023-09-08T05:44:12;14.00;99.90
11569;DHT22;5840;46.894;15.542;2023-09-08T05:46:39;14.10;99.90
11569;DHT22;5840;46.894;15.542;2023-09-08T05:49:06;14.20;99.90
11569;DHT22;5840;46.894;15.542;2023-09-08T05:51:33;14.30;99.90
11569;DHT22;5840;46.894;15.542;2023-09-08T05:54:00;14.30;99.90
11569;DHT22;5840;46.894;15.542;2023-09-08T05:56:30;14.40;99.90
11569;DHT22;5840;46.894;15.542;2023-09-08T05:58:57;14.50;99.90
11569;DHT22;5840;46.894;15.542;2023-09-08T06:01:25;14.60;99.90
11569;DHT22;5840;46.894;15.542;2023-09-08T06:03:52;14.70;99.90
11569;DHT22;5840;46.894;15.542;2023-09-08T06:06:20;14.70;99.90
11569;DHT22;5840;46.894;15.542;2023-09-08T06:08:47;14.80;99.90
11569;DHT22;5840;46.894;15.542;2023-09-08T06:11:14;14.90;99.90
11569;DHT22;5840;46.894;15.542;2023-09-08T06:13:41;15.00;99.90
11569;DHT22;5840;46.894;15.542;2023-09-08T06:16:08;15.20;99.90
11569;DHT22;5840;46.894;15.542;2023-09-08T06:18:36;15.30;99.90
11569;DHT22;5840;46.894;15.542;2023-09-08T06:21:06;15.40;99.90
11569;DHT22;5840;46.894;15.542;2023-09-08T06:23:33;15.60;99.90
11569;DHT22;5840;46.894;15.542;2023-09-08T06:26:00;15.70;99.90
11569;DHT22;5840;46.894;15.542;2023-09-08T06:28:28;15.80;99.90
11569;DHT22;5840;46.894;15.542;2023-09-08T06:30:54;15.90;99.90
11569;DHT22;5840;46.894;15.542;2023-09-08T06:33:21;16.10;99.90
11569;DHT22;5840;46.894;15.542;2023-09-08T06:35:50;16.20;99.90
11569;DHT22;5840;46.894;15.542;2023-09-08T06:38:19;16.40;99.90
11569;DHT22;5840;46.894;15.542;2023-09-08T06:40:46;16.50;99.90
11569;DHT22;5840;46.894;15.542;2023-09-08T06:43:13;16.60;99.90
11569;DHT22;5840;46.894;15.542;2023-09-08T06:45:40;16.70;99.90
11569;DHT22;5840;46.894;15.542;2023-09-08T06:48:07;16.80;99.90
11569;DHT22;5840;46.894;15.542;2023-09-08T06:50:34;17.00;99.90
11569;DHT22;5840;46.894;15.542;2023-09-08T06:53:03;17.10;99.90
11569;DHT22;5840;46.894;15.542;2023-09-08T06:55:30;17.10;99.90
11569;DHT22;5840;46.894;15.542;2023-09-08T06:57:57;17.20;99.90
11569;DHT22;5840;46.894;15.542;2023-09-08T07:00:24;17.30;99.90
11569;DHT22;5840;46.894;15.542;2023-09-08T07:02:51;17.30;99.90
11569;DHT22;5840;46.894;15.542;2023-09-08T07:05:18;17.40;99.90
11569;DHT22;5840;46.894;15.542;2023-09-08T07:07:45;17.50;99.90
11569;DHT22;5840;46.894;15.542;2023-09-08T07:10:13;17.60;99.90
11569;DHT22;5840;46.894;15.542;2023-09-08T07:12:40;17.80;99.90
11569;DHT22;5840;46.894;15.542;2023-09-08T07:15:08;17.90;99.90
11569;DHT22;5840;46.894;15.542;2023-09-08T07:17:35;18.10;99.90
11569;DHT22;5840;46.894;15.542;2023-09-08T07:20:03;18.30;99.90
11569;DHT22;5840;46.894;15.542;2023-09-08T07:22:30;18.50;99.90
11569;DHT22;5840;46.894;15.542;2023-09-08T07:24:57;18.60;99.90
11569;DHT22;5840;46.894;15.542;2023-09-08T07:27:25;18.80;99.90
11569;DHT22;5840;46.894;15.542;2023-09-08T07:29:52;19.00;99.90
11569;DHT22;5840;46.894;15.542;2023-09-08T07:32:19;19.20;99.90
11569;DHT22;5840;46.894;15.542;2023-09-08T07:34:47;19.40;99.90
11569;DHT22;5840;46.894;15.542;2023-09-08T07:37:20;19.60;99.90
11569;DHT22;5840;46.894;15.542;2023-09-08T07:39:47;19.90;99.90
11569;DHT22;5840;46.894;15.542;2023-09-08T07:42:14;20.30;99.90
11569;DHT22;5840;46.894;15.542;2023-09-08T07:44:42;20.70;99.90
11569;DHT22;5840;46.894;15.542;2023-09-08T07:47:09;21.00;99.90
11569;DHT22;5840;46.894;15.542;2023-09-08T07:49:36;21.30;99.90
11569;DHT22;5840;46.894;15.542;2023-09-08T07:52:03;21.60;99.90
11569;DHT22;5840;46.894;15.542;2023-09-08T07:54:32;21.90;99.90
11569;DHT22;5840;46.894;15.542;2023-09-08T07:56:59;22.30;99.90
11569;DHT22;5840;46.894;15.542;2023-09-08T07:59:26;22.50;99.90
11569;DHT22;5840;46.894;15.542;2023-09-08T08:01:54;22.80;99.90
11569;DHT22;5840;46.894;15.542;2023-09-08T08:04:21;23.10;99.90
11569;DHT22;5840;46.894;15.542;2023-09-08T08:06:48;23.30;99.90
11569;DHT22;5840;46.894;15.542;2023-09-08T08:09:15;23.60;99.90
11569;DHT22;5840;46.894;15.542;2023-09-08T08:11:42;23.80;99.90
11569;DHT22;5840;46.894;15.542;2023-09-08T08:14:09;24.00;99.90
11569;DHT22;5840;46.894;15.542;2023-09-08T08:16:36;24.20;99.90
11569;DHT22;5840;46.894;15.542;2023-09-08T08:19:04;24.30;99.90
11569;DHT22;5840;46.894;15.542;2023-09-08T08:21:31;24.50;99.90
11569;DHT22;5840;46.894;15.542;2023-09-08T08:23:58;24.70;99.90
11569;DHT22;5840;46.894;15.542;2023-09-08T08:26:25;24.80;99.90
11569;DHT22;5840;46.894;15.542;2023-09-08T08:28:55;24.90;99.90
11569;DHT22;5840;46.894;15.542;2023-09-08T08:31:22;24.90;99.90
11569;DHT22;5840;46.894;15.542;2023-09-08T08:33:49;25.00;99.90
11569;DHT22;5840;46.894;15.542;2023-09-08T08:36:18;25.00;99.90
11569;DHT22;5840;46.894;15.542;2023-09-08T08:38:45;25.10;99.90
11569;DHT22;5840;46.894;15.542;2023-09-08T08:41:12;25.20;99.90
11569;DHT22;5840;46.894;15.542;2023-09-08T08:43:38;25.40;99.90
11569;DHT22;5840;46.894;15.542;2023-09-08T08:46:06;25.60;99.90
11569;DHT22;5840;46.894;15.542;2023-09-08T08:48:33;25.90;99.90
11569;DHT22;5840;46.894;15.542;2023-09-08T08:51:01;26.10;99.90
11569;DHT22;5840;46.894;15.542;2023-09-08T08:53:31;26.40;99.90
11569;DHT22;5840;46.894;15.542;2023-09-08T08:55:59;26.60;99.90
11569;DHT22;5840;46.894;15.542;2023-09-08T08:58:28;26.70;99.90
11569;DHT22;5840;46.894;15.542;2023-09-08T09:00:55;26.80;99.90
11569;DHT22;5840;46.894;15.542;2023-09-08T09:03:26;27.00;99.90
11569;DHT22;5840;46.894;15.542;2023-09-08T09:05:53;27.10;99.60
11569;DHT22;5840;46.894;15.542;2023-09-08T09:08:21;27.30;99.70
11569;DHT22;5840;46.894;15.542;2023-09-08T09:10:51;27.40;99.90
11569;DHT22;5840;46.894;15.542;2023-09-08T09:13:18;27.40;99.90
11569;DHT22;5840;46.894;15.542;2023-09-08T09:15:45;27.30;98.60
11569;DHT22;5840;46.894;15.542;2023-09-08T09:18:12;27.40;99.70
11569;DHT22;5840;46.894;15.542;2023-09-08T09:20:40;27.40;98.50
11569;DHT22;5840;46.894;15.542;2023-09-08T09:23:07;27.50;99.90
11569;DHT22;5840;46.894;15.542;2023-09-08T09:25:34;27.60;98.80
11569;DHT22;5840;46.894;15.542;2023-09-08T09:28:05;27.80;99.90
11569;DHT22;5840;46.894;15.542;2023-09-08T09:30:47;27.90;99.90
11569;DHT22;5840;46.894;15.542;2023-09-08T09:33:14;28.10;99.90
11569;DHT22;5840;46.894;15.542;2023-09-08T09:35:43;28.30;97.90
11569;DHT22;5840;46.894;15.542;2023-09-08T09:38:10;28.40;98.70
11569;DHT22;5840;46.894;15.542;2023-09-08T09:40:38;28.60;97.10
11569;DHT22;5840;46.894;15.542;2023-09-08T09:43:07;28.80;98.00
11569;DHT22;5840;46.894;15.542;2023-09-08T09:45:34;29.00;98.60
11569;DHT22;5840;46.894;15.542;2023-09-08T09:48:02;29.00;97.10
11569;DHT22;5840;46.894;15.542;2023-09-08T09:50:30;28.80;94.50
11569;DHT22;5840;46.894;15.542;2023-09-08T09:52:59;28.80;96.60
11569;DHT22;5840;46.894;15.542;2023-09-08T09:55:27;28.90;96.80
11569;DHT22;5840;46.894;15.542;2023-09-08T09:57:57;29.10;97.00
11569;DHT22;5840;46.894;15.542;2023-09-08T10:00:27;29.10;93.60
11569;DHT22;5840;46.894;15.542;2023-09-08T10:02:55;29.20;92.90
11569;DHT22;5840;46.894;15.542;2023-09-08T10:05:24;29.30;94.70
11569;DHT22;5840;46.894;15.542;2023-09-08T10:07:51;29.40;96.90
11569;DHT22;5840;46.894;15.542;2023-09-08T10:10:19;29.60;93.40
11569;DHT22;5840;46.894;15.542;2023-09-08T10:12:52;29.60;92.70
11569;DHT22;5840;46.894;15.542;2023-09-08T10:15:21;29.70;92.80
11569;DHT22;5840;46.894;15.542;2023-09-08T10:17:54;29.60;91.00
11569;DHT22;5840;46.894;15.542;2023-09-08T10:20:23;29.70;94.40
11569;DHT22;5840;46.894;15.542;2023-09-08T10:22:54;29.90;95.00
11569;DHT22;5840;46.894;15.542;2023-09-08T10:25:24;30.10;96.30
11569;DHT22;5840;46.894;15.542;2023-09-08T10:27:55;30.20;93.90
11569;DHT22;5840;46.894;15.542;2023-09-08T10:30:23;30.40;93.70
11569;DHT22;5840;46.894;15.542;2023-09-08T10:32:51;30.50;93.10
11569;DHT22;5840;46.894;15.542;2023-09-08T10:35:19;30.60;92.00
11569;DHT22;5840;46.894;15.542;2023-09-08T10:37:46;30.60;87.40
11569;DHT22;5840;46.894;15.542;2023-09-08T10:40:23;30.50;83.40
11569;DHT22;5840;46.894;15.542;2023-09-08T10:43:06;30.50;88.20
11569;DHT22;5840;46.894;15.542;2023-09-08T10:45:33;30.40;86.10
11569;DHT22;5840;46.894;15.542;2023-09-08T10:48:01;30.40;89.20
11569;DHT22;5840;46.894;15.542;2023-09-08T10:50:33;30.50;81.50
11569;DHT22;5840;46.894;15.542;2023-09-08T10:53:08;30.70;86.80
11569;DHT22;5840;46.894;15.542;2023-09-08T10:55:40;30.70;87.90
11569;DHT22;5840;46.894;15.542;2023-09-08T10:58:09;30.80;89.20
11569;DHT22;5840;46.894;15.542;2023-09-08T11:00:44;30.80;90.80
11569;DHT22;5840;46.894;15.542;2023-09-08T11:03:13;30.70;87.10
11569;DHT22;5840;46.894;15.542;2023-09-08T11:05:42;30.70;81.40
11569;DHT22;5840;46.894;15.542;2023-09-08T11:08:10;30.70;89.40
11569;DHT22;5840;46.894;15.542;2023-09-08T11:10:37;30.60;90.60
11569;DHT22;5840;46.894;15.542;2023-09-08T11:13:06;30.60;88.10
11569;DHT22;5840;46.894;15.542;2023-09-08T11:15:33;30.60;90.30
11569;DHT22;5840;46.894;15.542;2023-09-08T11:18:05;30.70;87.10
11569;DHT22;5840;46.894;15.542;2023-09-08T11:20:35;30.90;89.90
11569;DHT22;5840;46.894;15.542;2023-09-08T11:23:03;30.90;91.80
11569;DHT22;5840;46.894;15.542;2023-09-08T11:25:32;31.00;84.00
11569;DHT22;5840;46.894;15.542;2023-09-08T11:28:00;31.00;90.00
11569;DHT22;5840;46.894;15.542;2023-09-08T11:30:27;31.00;91.30
11569;DHT22;5840;46.894;15.542;2023-09-08T11:32:54;30.70;90.20
11569;DHT22;5840;46.894;15.542;2023-09-08T11:35:26;30.20;81.20
11569;DHT22;5840;46.894;15.542;2023-09-08T11:37:59;30.10;85.00
11569;DHT22;5840;46.894;15.542;2023-09-08T11:40:27;30.20;87.30
11569;DHT22;5840;46.894;15.542;2023-09-08T11:42:54;30.30;83.80
11569;DHT22;5840;46.894;15.542;2023-09-08T11:45:21;30.60;84.50
11569;DHT22;5840;46.894;15.542;2023-09-08T11:47:48;30.70;90.20
11569;DHT22;5840;46.894;15.542;2023-09-08T11:50:18;30.70;85.10
11569;DHT22;5840;46.894;15.542;2023-09-08T11:52:46;30.50;84.00
11569;DHT22;5840;46.894;15.542;2023-09-08T11:55:15;30.40;80.60
11569;DHT22;5840;46.894;15.542;2023-09-08T11:57:43;30.40;79.90
11569;DHT22;5840;46.894;15.542;2023-09-08T12:00:12;30.40;83.90
11569;DHT22;5840;46.894;15.542;2023-09-08T12:02:42;30.30;78.90
11569;DHT22;5840;46.894;15.542;2023-09-08T12:05:12;30.10;84.10
11569;DHT22;5840;46.894;15.542;2023-09-08T12:07:39;30.10;85.00
11569;DHT22;5840;46.894;15.542;2023-09-08T12:10:08;30.10;85.00
11569;DHT22;5840;46.894;15.542;2023-09-08T12:12:43;30.20;88.10
11569;DHT22;5840;46.894;15.542;2023-09-08T12:15:10;30.40;85.10
11569;DHT22;5840;46.894;15.542;2023-09-08T12:17:47;30.60;82.30
11569;DHT22;5840;46.894;15.542;2023-09-08T12:20:16;30.70;82.80
11569;DHT22;5840;46.894;15.542;2023-09-08T12:22:52;30.60;84.60
11569;DHT22;5840;46.894;15.542;2023-09-08T12:25:19;30.60;86.70
11569;DHT22;5840;46.894;15.542;2023-09-08T12:27:50;30.60;80.00
11569;DHT22;5840;46.894;15.542;2023-09-08T12:30:18;30.60;82.00
11569;DHT22;5840;46.894;15.542;2023-09-08T12:32:47;30.70;88.40
11569;DHT22;5840;46.894;15.542;2023-09-08T12:35:20;30.60;79.20
11569;DHT22;5840;46.894;15.542;2023-09-08T12:37:56;30.50;80.10
11569;DHT22;5840;46.894;15.542;2023-09-08T12:40:24;30.30;74.60
11569;DHT22;5840;46.894;15.542;2023-09-08T12:42:53;30.20;83.50
11569;DHT22;5840;46.894;15.542;2023-09-08T12:45:21;30.10;78.60
11569;DHT22;5840;46.894;15.542;2023-09-08T12:47:48;30.20;82.60
11569;DHT22;5840;46.894;15.542;2023-09-08T12:50:15;30.40;84.50
11569;DHT22;5840;46.894;15.542;2023-09-08T12:52:42;30.40;86.20
11569;DHT22;5840;46.894;15.542;2023-09-08T12:55:10;30.30;80.80
11569;DHT22;5840;46.894;15.542;2023-09-08T12:57:37;30.20;81.80
11569;DHT22;5840;46.894;15.542;2023-09-08T13:00:06;30.10;81.10
11569;DHT22;5840;46.894;15.542;2023-09-08T13:02:34;30.20;81.20
11569;DHT22;5840;46.894;15.542;2023-09-08T13:05:02;30.10;79.80
11569;DHT22;5840;46.894;15.542;2023-09-08T13:07:30;30.30;84.30
11569;DHT22;5840;46.894;15.542;2023-09-08T13:09:57;30.40;84.40
11569;DHT22;5840;46.894;15.542;2023-09-08T13:12:24;30.30;78.60
11569;DHT22;5840;46.894;15.542;2023-09-08T13:14:52;30.00;84.40
11569;DHT22;5840;46.894;15.542;2023-09-08T13:17:21;30.00;79.30
11569;DHT22;5840;46.894;15.542;2023-09-08T13:19:50;29.80;80.80
11569;DHT22;5840;46.894;15.542;2023-09-08T13:22:17;29.90;83.30
11569;DHT22;5840;46.894;15.542;2023-09-08T13:24:45;29.90;87.00
11569;DHT22;5840;46.894;15.542;2023-09-08T13:27:12;29.90;83.90
11569;DHT22;5840;46.894;15.542;2023-09-08T13:29:41;29.60;87.90
11569;DHT22;5840;46.894;15.542;2023-09-08T13:32:10;29.50;84.50
11569;DHT22;5840;46.894;15.542;2023-09-08T13:34:40;29.30;84.30
11569;DHT22;5840;46.894;15.542;2023-09-08T13:37:09;29.30;86.10
11569;DHT22;5840;46.894;15.542;2023-09-08T13:39:38;29.10;83.90
11569;DHT22;5840;46.894;15.542;2023-09-08T13:42:06;29.00;82.80
11569;DHT22;5840;46.894;15.542;2023-09-08T13:44:36;28.90;85.20
11569;DHT22;5840;46.894;15.542;2023-09-08T13:47:05;28.80;87.80
11569;DHT22;5840;46.894;15.542;2023-09-08T13:49:33;28.60;86.20
11569;DHT22;5840;46.894;15.542;2023-09-08T13:52:03;28.40;85.80
11569;DHT22;5840;46.894;15.542;2023-09-08T13:54:32;28.30;88.70
11569;DHT22;5840;46.894;15.542;2023-09-08T13:57:02;28.30;90.10
11569;DHT22;5840;46.894;15.542;2023-09-08T13:59:31;28.40;84.60
11569;DHT22;5840;46.894;15.542;2023-09-08T14:01:59;28.40;84.90
11569;DHT22;5840;46.894;15.542;2023-09-08T14:04:28;28.30;89.00
11569;DHT22;5840;46.894;15.542;2023-09-08T14:06:56;28.30;88.40
11569;DHT22;5840;46.894;15.542;2023-09-08T14:09:26;28.10;86.30
11569;DHT22;5840;46.894;15.542;2023-09-08T14:11:55;28.00;83.60
11569;DHT22;5840;46.894;15.542;2023-09-08T14:14:24;27.90;87.10
11569;DHT22;5840;46.894;15.542;2023-09-08T14:16:53;27.80;87.90
11569;DHT22;5840;46.894;15.542;2023-09-08T14:19:22;27.80;86.80
11569;DHT22;5840;46.894;15.542;2023-09-08T14:21:50;27.70;85.90
11569;DHT22;5840;46.894;15.542;2023-09-08T14:24:19;27.60;86.10
11569;DHT22;5840;46.894;15.542;2023-09-08T14:26:49;27.60;86.90
11569;DHT22;5840;46.894;15.542;2023-09-08T14:29:21;27.50;86.70
11569;DHT22;5840;46.894;15.542;2023-09-08T14:31:50;27.40;87.10
11569;DHT22;5840;46.894;15.542;2023-09-08T14:34:18;27.40;90.30
11569;DHT22;5840;46.894;15.542;2023-09-08T14:36:48;27.30;83.90
11569;DHT22;5840;46.894;15.542;2023-09-08T14:39:17;27.40;90.20
11569;DHT22;5840;46.894;15.542;2023-09-08T14:41:48;27.30;87.40
11569;DHT22;5840;46.894;15.542;2023-09-08T14:44:18;27.30;87.80
11569;DHT22;5840;46.894;15.542;2023-09-08T14:46:47;27.10;90.20
11569;DHT22;5840;46.894;15.542;2023-09-08T14:49:16;27.20;91.20
11569;DHT22;5840;46.894;15.542;2023-09-08T14:51:45;27.10;90.00
11569;DHT22;5840;46.894;15.542;2023-09-08T14:54:13;27.10;89.60
11569;DHT22;5840;46.894;15.542;2023-09-08T14:56:41;27.10;90.30
11569;DHT22;5840;46.894;15.542;2023-09-08T14:59:10;27.00;86.00
11569;DHT22;5840;46.894;15.542;2023-09-08T15:01:40;27.00;85.90
11569;DHT22;5840;46.894;15.542;2023-09-08T15:04:09;27.00;91.10
11569;DHT22;5840;46.894;15.542;2023-09-08T15:06:37;26.90;88.20
11569;DHT22;5840;46.894;15.542;2023-09-08T15:09:06;26.90;88.00
11569;DHT22;5840;46.894;15.542;2023-09-08T15:11:35;26.90;85.00
11569;DHT22;5840;46.894;15.542;2023-09-08T15:14:04;26.80;86.30
11569;DHT22;5840;46.894;15.542;2023-09-08T15:16:33;26.70;86.90
11569;DHT22;5840;46.894;15.542;2023-09-08T15:19:03;26.60;85.40
11569;DHT22;5840;46.894;15.542;2023-09-08T15:21:31;26.60;87.20
11569;DHT22;5840;46.894;15.542;2023-09-08T15:24:01;26.50;87.40
11569;DHT22;5840;46.894;15.542;2023-09-08T15:26:29;26.40;88.70
11569;DHT22;5840;46.894;15.542;2023-09-08T15:28:58;26.30;91.70
11569;DHT22;5840;46.894;15.542;2023-09-08T15:31:26;26.30;92.00
11569;DHT22;5840;46.894;15.542;2023-09-08T15:33:55;26.20;92.40
11569;DHT22;5840;46.894;15.542;2023-09-08T15:36:25;26.20;92.50